createdAt,value
2022-12-15T00:00:30.096Z,99130.00
2022-12-15T00:05:50.588Z,99132.81
2022-12-15T00:11:10.928Z,99133.97
2022-12-15T00:16:32.655Z,99128.75
2022-12-15T00:21:52.892Z,99130.59
2022-12-15T00:27:12.994Z,99130.59
2022-12-15T00:32:34.559Z,99131.00
2022-12-15T00:37:55.098Z,99132.28
2022-12-15T00:42:58.069Z,99148.06
2022-12-15T00:48:02.219Z,99149.75
2022-12-15T00:53:22.547Z,99162.47
2022-12-15T00:58:42.922Z,99167.00
2022-12-15T01:04:04.395Z,99178.84
2022-12-15T01:09:25.462Z,99178.41
2022-12-15T01:14:45.508Z,99199.00
2022-12-15T01:20:06.991Z,99191.81
2022-12-15T01:25:10.607Z,99204.66
2022-12-15T01:30:14.278Z,99203.81
2022-12-15T01:35:18.676Z,99199.31
2022-12-15T01:40:39.586Z,99211.84
2022-12-15T01:46:03.501Z,99231.16
2022-12-15T01:51:24.718Z,99222.00
2022-12-15T01:56:31.263Z,99214.09
2022-12-15T02:01:38.365Z,99217.22
2022-12-15T02:06:42.521Z,99220.88
2022-12-15T02:11:58.025Z,99233.44
2022-12-15T02:17:10.629Z,99236.25
2022-12-15T02:22:21.844Z,99244.84
2022-12-15T02:27:40.451Z,99242.56
2022-12-15T02:32:47.850Z,99246.97
2022-12-15T02:37:50.584Z,99247.69
2022-12-15T02:42:54.391Z,99252.19
2022-12-15T02:48:03.575Z,99256.13
2022-12-15T02:53:12.445Z,99264.31
2022-12-15T02:58:16.307Z,99273.72
2022-12-15T03:03:20.849Z,99292.91
2022-12-15T03:08:23.855Z,99302.22
2022-12-15T03:13:26.776Z,99310.66
2022-12-15T03:18:30.891Z,99310.94
2022-12-15T03:23:34.126Z,99317.91
2022-12-15T03:28:37.166Z,99323.41
2022-12-15T03:33:41.418Z,99323.22
2022-12-15T03:38:44.165Z,99320.09
2022-12-15T03:43:49.617Z,99323.34
2022-12-15T03:48:54.738Z,99324.97
2022-12-15T03:53:58.836Z,99325.38
2022-12-15T03:59:01.589Z,99324.22
2022-12-15T04:04:06.255Z,99326.31
2022-12-15T04:09:09.116Z,99344.69
2022-12-15T04:14:11.917Z,99360.47
2022-12-15T04:19:33.756Z,99363.66
2022-12-15T04:24:54.215Z,99368.56
2022-12-15T04:30:14.368Z,99373.56
2022-12-15T04:35:35.835Z,99379.91
2022-12-15T04:40:55.985Z,99388.28
2022-12-15T04:46:16.145Z,99392.34
2022-12-15T04:51:37.747Z,99405.09
2022-12-15T04:56:57.852Z,99411.53
2022-12-15T05:02:18.046Z,99426.16
2022-12-15T05:07:39.798Z,99424.06
2022-12-15T05:13:00.034Z,99432.50
2022-12-15T05:18:20.884Z,99414.63
2022-12-15T05:23:42.757Z,99415.72
2022-12-15T05:29:03.376Z,99421.47
2022-12-15T05:34:06.950Z,99428.44
2022-12-15T05:39:11.093Z,99441.03
2022-12-15T05:44:13.883Z,99447.28
2022-12-15T05:49:17.584Z,99451.13
2022-12-15T05:54:22.171Z,99463.03
2022-12-15T05:59:24.954Z,99470.50
2022-12-15T06:04:27.787Z,99474.50
2022-12-15T06:09:32.082Z,99472.13
2022-12-15T06:14:36.206Z,99469.88
2022-12-15T06:19:39.014Z,99491.63
2022-12-15T06:24:43.197Z,99495.72
2022-12-15T06:29:46.003Z,99512.41
2022-12-15T06:34:49.212Z,99513.81
2022-12-15T06:39:53.327Z,99520.47
2022-12-15T06:44:56.074Z,99537.13
2022-12-15T06:49:58.856Z,99545.06
2022-12-15T06:55:03.217Z,99552.72
2022-12-15T07:00:08.808Z,99559.66
2022-12-15T07:05:12.290Z,99548.91
2022-12-15T07:10:16.514Z,99555.69
2022-12-15T07:15:19.331Z,99553.84
2022-12-15T07:20:28.483Z,99560.81
2022-12-15T07:25:33.120Z,99555.31
2022-12-15T07:30:38.876Z,99558.69
2022-12-15T07:35:42.188Z,99568.28
2022-12-15T07:40:46.694Z,99578.75
2022-12-15T07:45:52.978Z,99574.94
2022-12-15T07:51:07.369Z,99571.28
2022-12-15T07:56:15.398Z,99580.63
2022-12-15T08:01:18.655Z,99587.59
2022-12-15T08:06:21.534Z,99627.25
2022-12-15T08:11:26.892Z,99634.38
2022-12-15T08:16:30.731Z,99648.09
2022-12-15T08:21:33.843Z,99640.22
2022-12-15T08:26:38.432Z,99638.28
2022-12-15T08:31:41.669Z,99624.28
2022-12-15T08:36:44.538Z,99625.75
2022-12-15T08:41:48.676Z,99633.69
2022-12-15T08:46:52.214Z,99637.38
2022-12-15T08:51:54.984Z,99634.59
2022-12-15T08:56:59.340Z,99631.44
2022-12-15T09:02:02.365Z,99634.72
2022-12-15T09:07:05.350Z,99635.56
2022-12-15T09:12:11.267Z,99638.34
2022-12-15T09:17:14.243Z,99637.97
2022-12-15T09:22:17.118Z,99642.09
2022-12-15T09:27:21.374Z,99654.63
2022-12-15T09:32:24.283Z,99641.00
2022-12-15T09:37:27.130Z,99648.69
2022-12-15T09:42:31.762Z,99651.50
2022-12-15T09:47:38.886Z,99656.72
2022-12-15T09:52:47.123Z,99654.63
2022-12-15T09:57:54.184Z,99654.63
2022-12-15T10:03:16.994Z,99677.38
2022-12-15T10:08:20.308Z,99680.66
2022-12-15T10:13:28.659Z,99694.88
2022-12-15T10:18:33.477Z,99707.78
2022-12-15T10:23:36.734Z,99703.88
2022-12-15T10:28:51.548Z,99722.34
2022-12-15T10:33:57.482Z,99702.84
2022-12-15T10:39:00.525Z,99693.47
2022-12-15T10:44:04.945Z,99692.84
2022-12-15T10:49:22.806Z,99690.28
2022-12-15T10:54:25.846Z,99709.63
2022-12-15T10:59:32.078Z,99714.94
2022-12-15T11:04:35.126Z,99709.06
2022-12-15T11:09:38.794Z,99694.19
2022-12-15T11:14:45.862Z,99687.44
2022-12-15T11:19:56.569Z,99701.75
2022-12-15T11:25:04.499Z,99703.94
2022-12-15T11:30:13.938Z,99702.81
2022-12-15T11:35:18.805Z,99714.44
2022-12-15T11:40:31.811Z,99698.38
2022-12-15T11:45:40.722Z,99697.28
2022-12-15T11:50:51.145Z,99685.38
2022-12-15T11:55:57.544Z,99683.94
2022-12-15T12:01:06.199Z,99676.47
2022-12-15T12:06:12.011Z,99682.03
2022-12-15T12:11:15.364Z,99672.22
2022-12-15T12:16:27.753Z,99685.91
2022-12-15T12:21:32.243Z,99675.03
2022-12-15T12:26:38.977Z,99676.09
2022-12-15T12:31:44.927Z,99673.53
2022-12-15T12:36:48.872Z,99666.31
2022-12-15T12:41:55.172Z,99665.69
2022-12-15T12:47:00.249Z,99673.88
2022-12-15T12:52:04.239Z,99680.22
2022-12-15T12:57:30.322Z,99675.69
2022-12-15T13:02:50.464Z,99676.56
2022-12-15T13:07:57.216Z,99666.69
2022-12-15T13:13:01.396Z,99666.53
2022-12-15T13:18:08.460Z,99657.91
2022-12-15T13:23:41.508Z,99659.41
2022-12-15T13:28:50.640Z,99653.91
2022-12-15T13:33:57.474Z,99649.66
2022-12-15T13:39:01.803Z,99647.38
2022-12-15T13:44:08.808Z,99648.47
2022-12-15T13:49:15.161Z,99638.00
2022-12-15T13:54:19.830Z,99659.47
2022-12-15T13:59:32.311Z,99663.50
2022-12-15T14:04:36.953Z,99649.66
2022-12-15T14:09:41.891Z,99656.94
2022-12-15T14:14:47.312Z,99660.47
2022-12-15T14:19:53.375Z,99662.03
2022-12-15T14:25:00.966Z,99674.19
2022-12-15T14:30:18.318Z,99671.31
2022-12-15T14:35:25.923Z,99692.28
2022-12-15T14:40:29.398Z,99683.91
2022-12-15T14:45:33.625Z,99681.44
2022-12-15T14:50:38.037Z,99684.63
2022-12-15T14:55:41.304Z,99674.66
2022-12-15T15:00:49.995Z,99668.28
2022-12-15T15:05:56.987Z,99660.97
2022-12-15T15:11:01.187Z,99661.31
2022-12-15T15:16:06.434Z,99654.63
2022-12-15T15:21:16.305Z,99659.22
2022-12-15T15:26:27.407Z,99654.69
2022-12-15T15:31:40.307Z,99654.69
2022-12-15T15:36:45.259Z,99657.50
2022-12-15T15:41:48.039Z,99671.13
2022-12-15T15:46:52.283Z,99671.28
2022-12-15T15:51:58.226Z,99658.28
2022-12-15T15:57:00.980Z,99673.63
2022-12-15T16:02:04.180Z,99672.53
2022-12-15T16:07:08.956Z,99674.97
2022-12-15T16:12:14.828Z,99679.34
2022-12-15T16:17:17.619Z,99691.91
2022-12-15T16:22:22.435Z,99699.94
2022-12-15T16:27:25.356Z,99687.50
2022-12-15T16:32:28.135Z,99697.50
2022-12-15T16:37:36.262Z,99706.25
2022-12-15T16:42:42.394Z,99722.44
2022-12-15T16:47:45.704Z,99720.84
2022-12-15T16:52:51.176Z,99723.66
2022-12-15T16:57:54.293Z,99725.25
2022-12-15T17:02:57.292Z,99719.41
2022-12-15T17:08:02.130Z,99713.31
2022-12-15T17:13:05.755Z,99717.97
2022-12-15T17:18:08.635Z,99708.50
2022-12-15T17:23:16.558Z,99708.00
2022-12-15T17:28:20.766Z,99706.41
2022-12-15T17:33:24.317Z,99715.72
2022-12-15T17:38:28.476Z,99710.34
2022-12-15T17:43:35.681Z,99697.13
2022-12-15T17:48:38.797Z,99678.31
2022-12-15T17:53:43.233Z,99688.06
2022-12-15T17:58:46.000Z,99699.47
2022-12-15T18:03:48.918Z,99697.72
2022-12-15T18:08:53.191Z,99712.97
2022-12-15T18:13:56.410Z,99705.50
2022-12-15T18:19:00.290Z,99712.44
2022-12-15T18:24:04.638Z,99719.38
2022-12-15T18:29:13.165Z,99723.75
2022-12-15T18:34:17.952Z,99725.19
2022-12-15T18:39:23.433Z,99727.00
2022-12-15T18:44:27.140Z,99723.38
2022-12-15T18:49:30.042Z,99726.63
2022-12-15T18:54:34.303Z,99716.63
2022-12-15T18:59:37.083Z,99715.78
2022-12-15T19:04:39.831Z,99717.34
2022-12-15T19:09:44.163Z,99721.72
2022-12-15T19:14:47.492Z,99720.88
2022-12-15T19:20:07.798Z,99724.16
2022-12-15T19:25:12.576Z,99704.41
2022-12-15T19:30:16.708Z,99710.59
2022-12-15T19:35:19.503Z,99710.59
2022-12-15T19:40:27.357Z,99712.31
2022-12-15T19:45:31.453Z,99706.84
2022-12-15T19:50:36.649Z,99715.72
2022-12-15T19:55:41.140Z,99708.41
2022-12-15T20:00:43.909Z,99695.97
2022-12-15T20:05:46.801Z,99690.50
2022-12-15T20:10:51.344Z,99685.72
2022-12-15T20:15:54.291Z,99684.72
2022-12-15T20:20:57.175Z,99694.59
2022-12-15T20:26:01.569Z,99694.97
2022-12-15T20:31:04.508Z,99685.38
2022-12-15T20:36:10.219Z,99687.41
2022-12-15T20:41:17.797Z,99674.28
2022-12-15T20:46:21.738Z,99674.97
2022-12-15T20:51:25.779Z,99663.41
2022-12-15T20:56:30.248Z,99656.47
2022-12-15T21:01:35.618Z,99637.81
2022-12-15T21:06:38.718Z,99629.91
2022-12-15T21:11:43.066Z,99636.72
2022-12-15T21:16:46.003Z,99646.13
2022-12-15T21:21:52.001Z,99645.25
2022-12-15T21:26:56.421Z,99637.22
2022-12-15T21:31:59.528Z,99627.84
2022-12-15T21:37:03.504Z,99626.91
2022-12-15T21:42:11.255Z,99615.72
2022-12-15T21:47:25.721Z,99621.59
2022-12-15T21:52:28.664Z,99632.50
2022-12-15T21:57:32.827Z,99630.25
2022-12-15T22:02:35.708Z,99633.63
2022-12-15T22:07:38.518Z,99632.06
2022-12-15T22:12:43.975Z,99633.16
2022-12-15T22:17:46.819Z,99637.69
2022-12-15T22:22:49.724Z,99644.31
2022-12-15T22:27:54.754Z,99653.34
2022-12-15T22:32:57.968Z,99666.28
2022-12-15T22:38:00.852Z,99664.84
2022-12-15T22:43:05.087Z,99658.63
2022-12-15T22:48:07.906Z,99659.47
2022-12-15T22:53:13.954Z,99665.56
2022-12-15T22:58:23.669Z,99668.88
2022-12-15T23:03:27.896Z,99672.41
2022-12-15T23:08:31.035Z,99680.59
2022-12-15T23:13:35.438Z,99680.31
2022-12-15T23:18:38.367Z,99677.91
2022-12-15T23:23:41.475Z,99679.16
2022-12-15T23:28:45.747Z,99672.09
2022-12-15T23:33:48.521Z,99670.84
2022-12-15T23:38:55.141Z,99673.66
2022-12-15T23:43:59.277Z,99666.00
2022-12-15T23:49:02.141Z,99660.63
2022-12-15T23:54:05.142Z,99635.69
2022-12-15T23:59:09.246Z,99636.16
